Gabriella — OJHP — position and weather

sailwx.info

Track history (hours):
 
Tides and Currents Weather Stations Pressure Air Temp Water Temp Dewpoint Dewpoint Depression Visibility Wind Speed Wind Dir Waves Ship Positions

Gabriella

Last reported at 2014-Jul-23 06:33 UTC. Time now 2014-Jul-23 08:05 UTC.
Position N 60°08' E 024°60'.

Length 172 m; draft 6.5 m.

Type: Ship (hazmat cat A). MMSI: 230361000.

Date/timePositionNaut miles runAvg speedWind from/ knotsBaromVisibWave heightAir tempDewpointWater temp
2014-Jul-23 06:33N 60°08' E 024°60'1716.7
2014-Jul-23 05:31N 59°55' E 024°39'1818.8
2014-Jul-23 04:33N 59°47' E 024°06'1918.9
2014-Jul-23 03:34N 59°43' E 023°30'1918.9
2014-Jul-23 02:34N 59°39' E 022°53'1918.8
2014-Jul-23 01:34N 59°34' E 022°17'1918.5
2014-Jul-23 00:33N 59°32' E 021°41'1918.8
2014-Jul-22 23:33N 59°36' E 021°05'1818.5
2014-Jul-22 22:34N 59°42' E 020°30'1918.8
2014-Jul-22 21:33N 59°53' E 019°59'60 9.3
2014-Jul-22 15:06N 59°22' E 018°17'610.9
2014-Jul-22 14:33N 59°19' E 018°07'1 0.7
2014-Jul-22 13:33N 59°19' E 018°06'0 0.0
2014-Jul-22 12:30N 59°19' E 018°06'0 0.0
2014-Jul-22 11:33N 59°19' E 018°06'0 0.0
2014-Jul-22 10:33N 59°19' E 018°06'0 0.0
2014-Jul-22 09:33N 59°19' E 018°06'0 0.0
2014-Jul-22 08:33N 59°19' E 018°06'3 2.5
2014-Jul-22 07:34N 59°20' E 018°11'12511.4
2014-Jul-21 20:34N 59°34' E 022°15'2418.9
2014-Jul-21 19:16N 59°38' E 023°02'1418.9
2014-Jul-21 18:33N 59°41' E 023°29'2019.0
2014-Jul-21 17:31N 59°47' E 024°06'2219.2
2014-Jul-21 16:22N 59°57' E 024°46'1417.0
2014-Jul-21 15:34N 60°08' E 024°60'2 1.7
2014-Jul-21 14:33N 60°10' E 024°58'3 3.0
2014-Jul-21 13:33N 60°07' E 024°59'2120.7
2014-Jul-21 12:33N 59°47' E 024°49'20 9.0
2014-Jul-21 10:22N 59°27' E 024°47'2218.9
2014-Jul-21 09:11N 59°49' E 024°52'1421.0
2014-Jul-21 08:32N 60°03' E 024°57'7 6.6
2014-Jul-21 07:28N 60°10' E 024°58'2 1.9
2014-Jul-21 06:33N 60°08' E 024°60'1716.5
2014-Jul-21 05:31N 59°55' E 024°39'1818.7
2014-Jul-21 04:33N 59°48' E 024°06'1918.8
2014-Jul-21 03:33N 59°43' E 023°30'1919.1
2014-Jul-21 02:33N 59°39' E 022°53'1919.1
2014-Jul-21 01:33N 59°34' E 022°16'1918.6
2014-Jul-21 00:34N 59°32' E 021°40'1918.9
2014-Jul-20 23:33N 59°36' E 021°03'1818.4
2014-Jul-20 22:34N 59°42' E 020°29'1918.7
2014-Jul-20 21:34N 59°53' E 019°59'66 9.4
2014-Jul-20 14:32N 59°19' E 018°07'1 0.7
2014-Jul-20 13:29N 59°19' E 018°06'0 0.0
2014-Jul-20 12:32N 59°19' E 018°06'0 0.0
2014-Jul-20 11:32N 59°19' E 018°06'0 0.0
2014-Jul-20 10:32N 59°19' E 018°06'0 0.0
2014-Jul-20 09:32N 59°19' E 018°06'0 0.0
2014-Jul-20 08:32N 59°19' E 018°06'15211.4
2014-Jul-19 19:12N 59°38' E 023°03'1218.8
2014-Jul-19 18:33N 59°41' E 023°26'1918.8
2014-Jul-19 17:33N 59°47' E 024°02'2418.7
2014-Jul-19 16:17N 59°56' E 024°45'1317.4
2014-Jul-19 15:33N 60°07' E 024°59'3 3.1
2014-Jul-19 14:32N 60°10' E 024°58'3 2.9
2014-Jul-19 13:34N 60°07' E 024°59'2020.2
2014-Jul-19 12:33N 59°47' E 024°51'1919.6
2014-Jul-19 11:33N 59°28' E 024°46'0 0.3
2014-Jul-19 10:19N 59°28' E 024°47'1418.9
2014-Jul-19 09:33N 59°42' E 024°46'2120.9
2014-Jul-19 08:32N 60°03' E 024°57'7 7.3
2014-Jul-19 07:32N 60°10' E 024°58'2 1.8
2014-Jul-19 06:33N 60°08' E 024°60'1716.6
2014-Jul-19 05:33N 59°55' E 024°40'1918.8
2014-Jul-19 04:33N 59°47' E 024°06'1918.9
2014-Jul-19 03:33N 59°43' E 023°29'16512.7
2014-Jul-18 14:31N 59°19' E 018°07'1 0.6
2014-Jul-18 13:31N 59°19' E 018°06'0 0.0
2014-Jul-18 12:31N 59°19' E 018°06'0 0.0
2014-Jul-18 11:28N 59°19' E 018°06'0 0.0
2014-Jul-18 10:25N 59°19' E 018°06'0 0.0
2014-Jul-18 09:25N 59°19' E 018°06'0 0.0
2014-Jul-18 08:31N 59°19' E 018°06'13210.8
2014-Jul-17 20:18N 59°35' E 022°23'1618.7
2014-Jul-17 19:28N 59°38' E 022°53'1718.6
2014-Jul-17 18:33N 59°41' E 023°26'1918.6
2014-Jul-17 17:33N 59°46' E 024°01'1918.5
2014-Jul-17 16:33N 59°54' E 024°35'1717.5
2014-Jul-17 15:33N 60°06' E 024°59'4 3.5
2014-Jul-17 14:32N 60°10' E 024°58'6 5.8
2014-Jul-17 13:33N 60°04' E 024°58'1 0.1
2014-Jul-17 08:34N 60°04' E 024°58'6 6.2
2014-Jul-17 07:33N 60°10' E 024°58'2 1.7
2014-Jul-17 06:33N 60°08' E 024°60'1716.5
2014-Jul-17 05:32N 59°55' E 024°40'1818.8
2014-Jul-17 04:34N 59°47' E 024°06'1918.9
2014-Jul-17 03:33N 59°43' E 023°29'1918.9
2014-Jul-17 02:34N 59°39' E 022°53'14712.2
2014-Jul-16 14:29N 59°19' E 018°07'0 0.3
2014-Jul-16 13:04N 59°19' E 018°06'0 0.0
2014-Jul-16 12:28N 59°19' E 018°06'0 0.0
2014-Jul-16 11:13N 59°19' E 018°06'0 0.0
2014-Jul-16 10:19N 59°19' E 018°06'0 0.0
2014-Jul-16 09:28N 59°19' E 018°06'0 0.0
2014-Jul-16 08:22N 59°19' E 018°06'15511.7
2014-Jul-15 19:06N 59°39' E 023°08'1019.2
2014-Jul-15 18:33N 59°41' E 023°28'2019.1
2014-Jul-15 17:31N 59°47' E 024°06'2318.8
2014-Jul-15 16:19N 59°57' E 024°47'1316.9
2014-Jul-15 15:33N 60°08' E 024°59'2 1.9
2014-Jul-15 14:29N 60°10' E 024°58'7 7.4
2014-Jul-15 13:33N 60°03' E 024°58'1 0.3
2014-Jul-15 08:34N 60°04' E 024°58'6 5.0
2014-Jul-15 07:27N 60°10' E 024°58'2 1.8
2014-Jul-15 06:33N 60°09' E 024°60'1817.0
2014-Jul-15 05:31N 59°55' E 024°39'1818.8
2014-Jul-15 04:33N 59°47' E 024°06'1918.8
2014-Jul-15 03:32N 59°42' E 023°29'15413.6
2014-Jul-14 16:12N 59°27' E 018°26'7 6.5
2014-Jul-14 15:06N 59°22' E 018°16'610.8
2014-Jul-14 14:34N 59°19' E 018°06'2 0.2
2014-Jul-14 07:33N 59°19' E 018°09'15412.7
2014-Jul-13 19:27N 59°40' E 023°09'1921.3
2014-Jul-13 18:33N 59°44' E 023°45'  
Track history (hours):
 
Tides and Currents Weather Stations Pressure Air Temp Water Temp Dewpoint Dewpoint Depression Visibility Wind Speed Wind Dir Waves Ship Positions

Gabriella

Last reported at 2014-Jul-23 06:33 UTC. Time now 2014-Jul-23 08:05 UTC.
Position N 60°08' E 024°60'.

Length 172 m; draft 6.5 m.

Type: Ship (hazmat cat A). MMSI: 230361000.

Date/timePositionNaut miles runAvg speedWind from/ knotsBaromVisibWave heightAir tempDewpointWater temp
2014-Jul-23 06:33N 60°08' E 024°60'1716.7
2014-Jul-23 05:31N 59°55' E 024°39'1818.8
2014-Jul-23 04:33N 59°47' E 024°06'1918.9
2014-Jul-23 03:34N 59°43' E 023°30'1918.9
2014-Jul-23 02:34N 59°39' E 022°53'1918.8
2014-Jul-23 01:34N 59°34' E 022°17'1918.5
2014-Jul-23 00:33N 59°32' E 021°41'1918.8
2014-Jul-22 23:33N 59°36' E 021°05'1818.5
2014-Jul-22 22:34N 59°42' E 020°30'1918.8
2014-Jul-22 21:33N 59°53' E 019°59'60 9.3
2014-Jul-22 15:06N 59°22' E 018°17'610.9
2014-Jul-22 14:33N 59°19' E 018°07'1 0.7
2014-Jul-22 13:33N 59°19' E 018°06'0 0.0
2014-Jul-22 12:30N 59°19' E 018°06'0 0.0
2014-Jul-22 11:33N 59°19' E 018°06'0 0.0
2014-Jul-22 10:33N 59°19' E 018°06'0 0.0
2014-Jul-22 09:33N 59°19' E 018°06'0 0.0
2014-Jul-22 08:33N 59°19' E 018°06'3 2.5
2014-Jul-22 07:34N 59°20' E 018°11'12511.4
2014-Jul-21 20:34N 59°34' E 022°15'2418.9
2014-Jul-21 19:16N 59°38' E 023°02'1418.9
2014-Jul-21 18:33N 59°41' E 023°29'2019.0
2014-Jul-21 17:31N 59°47' E 024°06'2219.2
2014-Jul-21 16:22N 59°57' E 024°46'1417.0
2014-Jul-21 15:34N 60°08' E 024°60'2 1.7
2014-Jul-21 14:33N 60°10' E 024°58'3 3.0
2014-Jul-21 13:33N 60°07' E 024°59'2120.7
2014-Jul-21 12:33N 59°47' E 024°49'20 9.0
2014-Jul-21 10:22N 59°27' E 024°47'2218.9
2014-Jul-21 09:11N 59°49' E 024°52'1421.0
2014-Jul-21 08:32N 60°03' E 024°57'7 6.6
2014-Jul-21 07:28N 60°10' E 024°58'2 1.9
2014-Jul-21 06:33N 60°08' E 024°60'1716.5
2014-Jul-21 05:31N 59°55' E 024°39'1818.7
2014-Jul-21 04:33N 59°48' E 024°06'1918.8
2014-Jul-21 03:33N 59°43' E 023°30'1919.1
2014-Jul-21 02:33N 59°39' E 022°53'1919.1
2014-Jul-21 01:33N 59°34' E 022°16'1918.6
2014-Jul-21 00:34N 59°32' E 021°40'1918.9
2014-Jul-20 23:33N 59°36' E 021°03'1818.4
2014-Jul-20 22:34N 59°42' E 020°29'1918.7
2014-Jul-20 21:34N 59°53' E 019°59'66 9.4
2014-Jul-20 14:32N 59°19' E 018°07'1 0.7
2014-Jul-20 13:29N 59°19' E 018°06'0 0.0
2014-Jul-20 12:32N 59°19' E 018°06'0 0.0
2014-Jul-20 11:32N 59°19' E 018°06'0 0.0
2014-Jul-20 10:32N 59°19' E 018°06'0 0.0
2014-Jul-20 09:32N 59°19' E 018°06'0 0.0
2014-Jul-20 08:32N 59°19' E 018°06'15211.4
2014-Jul-19 19:12N 59°38' E 023°03'1218.8
2014-Jul-19 18:33N 59°41' E 023°26'1918.8
2014-Jul-19 17:33N 59°47' E 024°02'2418.7
2014-Jul-19 16:17N 59°56' E 024°45'1317.4
2014-Jul-19 15:33N 60°07' E 024°59'3 3.1
2014-Jul-19 14:32N 60°10' E 024°58'3 2.9
2014-Jul-19 13:34N 60°07' E 024°59'2020.2
2014-Jul-19 12:33N 59°47' E 024°51'1919.6
2014-Jul-19 11:33N 59°28' E 024°46'0 0.3
2014-Jul-19 10:19N 59°28' E 024°47'1418.9
2014-Jul-19 09:33N 59°42' E 024°46'2120.9
2014-Jul-19 08:32N 60°03' E 024°57'7 7.3
2014-Jul-19 07:32N 60°10' E 024°58'2 1.8
2014-Jul-19 06:33N 60°08' E 024°60'1716.6
2014-Jul-19 05:33N 59°55' E 024°40'1918.8
2014-Jul-19 04:33N 59°47' E 024°06'1918.9
2014-Jul-19 03:33N 59°43' E 023°29'16512.7
2014-Jul-18 14:31N 59°19' E 018°07'1 0.6
2014-Jul-18 13:31N 59°19' E 018°06'0 0.0
2014-Jul-18 12:31N 59°19' E 018°06'0 0.0
2014-Jul-18 11:28N 59°19' E 018°06'0 0.0
2014-Jul-18 10:25N 59°19' E 018°06'0 0.0
2014-Jul-18 09:25N 59°19' E 018°06'0 0.0
2014-Jul-18 08:31N 59°19' E 018°06'13210.8
2014-Jul-17 20:18N 59°35' E 022°23'1618.7
2014-Jul-17 19:28N 59°38' E 022°53'1718.6
2014-Jul-17 18:33N 59°41' E 023°26'1918.6
2014-Jul-17 17:33N 59°46' E 024°01'1918.5
2014-Jul-17 16:33N 59°54' E 024°35'1717.5
2014-Jul-17 15:33N 60°06' E 024°59'4 3.5
2014-Jul-17 14:32N 60°10' E 024°58'6 5.8
2014-Jul-17 13:33N 60°04' E 024°58'1 0.1
2014-Jul-17 08:34N 60°04' E 024°58'6 6.2
2014-Jul-17 07:33N 60°10' E 024°58'2 1.7
2014-Jul-17 06:33N 60°08' E 024°60'1716.5
2014-Jul-17 05:32N 59°55' E 024°40'1818.8
2014-Jul-17 04:34N 59°47' E 024°06'1918.9
2014-Jul-17 03:33N 59°43' E 023°29'1918.9
2014-Jul-17 02:34N 59°39' E 022°53'14712.2
2014-Jul-16 14:29N 59°19' E 018°07'0 0.3
2014-Jul-16 13:04N 59°19' E 018°06'0 0.0
2014-Jul-16 12:28N 59°19' E 018°06'0 0.0
2014-Jul-16 11:13N 59°19' E 018°06'0 0.0
2014-Jul-16 10:19N 59°19' E 018°06'0 0.0
2014-Jul-16 09:28N 59°19' E 018°06'0 0.0
2014-Jul-16 08:22N 59°19' E 018°06'15511.7
2014-Jul-15 19:06N 59°39' E 023°08'1019.2
2014-Jul-15 18:33N 59°41' E 023°28'2019.1
2014-Jul-15 17:31N 59°47' E 024°06'2318.8
2014-Jul-15 16:19N 59°57' E 024°47'1316.9
2014-Jul-15 15:33N 60°08' E 024°59'2 1.9
2014-Jul-15 14:29N 60°10' E 024°58'7 7.4
2014-Jul-15 13:33N 60°03' E 024°58'1 0.3
2014-Jul-15 08:34N 60°04' E 024°58'6 5.0
2014-Jul-15 07:27N 60°10' E 024°58'2 1.8
2014-Jul-15 06:33N 60°09' E 024°60'1817.0
2014-Jul-15 05:31N 59°55' E 024°39'1818.8
2014-Jul-15 04:33N 59°47' E 024°06'1918.8
2014-Jul-15 03:32N 59°42' E 023°29'15413.6
2014-Jul-14 16:12N 59°27' E 018°26'7 6.5
2014-Jul-14 15:06N 59°22' E 018°16'610.8
2014-Jul-14 14:34N 59°19' E 018°06'2 0.2
2014-Jul-14 07:33N 59°19' E 018°09'15412.7
2014-Jul-13 19:27N 59°40' E 023°09'1921.3
2014-Jul-13 18:33N 59°44' E 023°45'  

Dump ship's entire track history